Time;durP1;ratioP1;P1;durP2;ratioP2;P2;SDS_P1;SDS_P2;PMS_P1;PMS_P2;Temp;Humidity;BMP_temperature;BMP_pressure;BME280_temperature;BME280_humidity;BME280_pressure;Samples;Min_cycle;Max_cycle;Signal;HPM_P1;HPM_P2
2022/09/06 00:01:45;;;;;;;9.25;5.00;;;26.60;47.80;;;;;;5011707;28;20049;-67
2022/09/06 00:04:11;;;;;;;10.68;5.18;;;26.60;47.80;;;;;;5011676;28;20386;-67
2022/09/06 00:06:37;;;;;;;12.32;5.07;;;26.60;47.80;;;;;;5011836;28;20030;-67
2022/09/06 00:09:03;;;;;;;5.78;4.43;;;26.50;47.80;;;;;;5011446;28;20037;-67
2022/09/06 00:11:29;;;;;;;8.48;4.88;;;26.50;47.80;;;;;;5011504;28;20034;-67
2022/09/06 00:13:55;;;;;;;6.50;4.57;;;26.50;47.90;;;;;;5011697;28;20410;-68
2022/09/06 00:16:23;;;;;;;7.13;4.30;;;26.40;47.80;;;;;;5011714;28;20038;-67
2022/09/06 00:18:53;;;;;;;9.32;4.95;;;26.40;47.80;;;;;;5011429;28;20041;-67
2022/09/06 00:21:23;;;;;;;12.85;5.72;;;26.50;48.00;;;;;;5010084;28;20053;-67
2022/09/06 00:23:50;;;;;;;9.90;5.57;;;26.30;48.10;;;;;;5025554;28;20072;-67
2022/09/06 00:26:17;;;;;;;7.65;5.03;;;26.50;48.10;;;;;;5011616;28;20052;-67
2022/09/06 00:28:43;;;;;;;8.63;5.20;;;26.30;48.10;;;;;;5011628;28;20088;-66
2022/09/06 00:31:13;;;;;;;8.20;5.13;;;26.50;48.10;;;;;;5011378;28;20060;-67
2022/09/06 00:33:40;;;;;;;9.63;4.78;;;26.40;48.10;;;;;;5009307;28;20038;-67
2022/09/06 00:36:07;;;;;;;6.30;4.30;;;26.30;48.10;;;;;;5025324;28;20069;-65
2022/09/06 00:38:33;;;;;;;7.20;4.40;;;26.50;48.20;;;;;;5010718;28;20427;-67
2022/09/06 00:41:00;;;;;;;7.25;4.60;;;26.40;48.20;;;;;;5011201;28;20038;-66
2022/09/06 00:43:26;;;;;;;9.50;5.05;;;26.40;48.10;;;;;;5011477;28;20034;-67
2022/09/06 00:45:53;;;;;;;8.00;5.45;;;26.50;48.20;;;;;;5011116;28;20149;-67
2022/09/06 00:48:21;;;;;;;8.65;5.07;;;26.50;48.20;;;;;;5011324;28;20034;-67
2022/09/06 00:51:10;;;;;;;9.52;5.20;;;26.40;48.10;;;;;;5028006;28;20096;-67
2022/09/06 00:53:36;;;;;;;11.02;5.50;;;26.50;48.10;;;;;;5011628;28;20038;-67
2022/09/06 00:56:02;;;;;;;6.45;5.00;;;26.50;48.10;;;;;;5028073;28;20053;-66
2022/09/06 00:58:29;;;;;;;7.43;5.32;;;26.30;48.20;;;;;;5031077;28;20056;-66
2022/09/06 01:00:55;;;;;;;8.57;5.40;;;26.30;48.20;;;;;;4982487;28;20092;-67
2022/09/06 01:03:23;;;;;;;7.57;5.25;;;26.40;48.20;;;;;;5032182;28;20045;-67
2022/09/06 01:05:56;;;;;;;10.38;4.78;;;26.20;48.30;;;;;;5015522;28;20491;-67
2022/09/06 01:08:30;;;;;;;;;;;26.20;48.30;;;;;;5032446;28;20457;-67
2022/09/06 01:11:02;;;;;;;7.68;5.30;;;26.20;48.30;;;;;;4998786;28;19971;-67
2022/09/06 01:13:55;;;;;;;11.77;5.43;;;26.30;48.40;;;;;;5015183;28;20501;-67
2022/09/06 01:16:46;;;;;;;5.35;4.30;;;26.20;48.60;;;;;;5031714;28;20069;-67
2022/09/06 01:19:39;;;;;;;9.48;5.47;;;26.10;48.70;;;;;;5031737;28;20116;-68
2022/09/06 01:22:14;;;;;;;8.43;5.65;;;26.20;48.70;;;;;;5012232;28;20046;-67
2022/09/06 01:24:46;;;;;;;8.52;5.10;;;26.10;48.60;;;;;;5012059;28;20099;-67
2022/09/06 01:27:40;;;;;;;7.35;5.43;;;26.20;48.60;;;;;;5014615;28;20037;-67
2022/09/06 01:30:10;;;;;;;10.38;5.43;;;26.20;48.70;;;;;;5013711;28;20046;-66
2022/09/06 01:33:11;;;;;;;7.53;4.72;;;26.10;48.70;;;;;;5013500;28;20523;-67
2022/09/06 01:35:46;;;;;;;10.27;5.15;;;26.20;48.70;;;;;;5012607;28;20046;-67
2022/09/06 01:38:14;;;;;;;8.00;4.35;;;26.20;48.80;;;;;;5013263;28;20487;-67
2022/09/06 01:40:40;;;;;;;7.90;4.75;;;26.20;48.70;;;;;;5013803;28;20040;-67
2022/09/06 01:43:11;;;;;;;10.50;5.20;;;26.20;48.70;;;;;;5013756;28;20034;-67
2022/09/06 01:46:00;;;;;;;7.13;4.93;;;26.20;48.70;;;;;;5014047;28;20030;-67
2022/09/06 01:48:43;;;;;;;8.40;4.93;;;26.20;48.70;;;;;;5011480;28;20695;-66
2022/09/06 01:51:33;;;;;;;;;;;26.00;48.70;;;;;;4995756;28;20190;-67
2022/09/06 01:54:02;;;;;;;7.68;5.30;;;26.10;48.80;;;;;;5011273;28;19909;-67
2022/09/06 01:56:42;;;;;;;9.30;6.18;;;26.10;48.80;;;;;;4994664;28;20048;-67
2022/09/06 01:59:43;;;;;;;10.25;5.60;;;26.00;48.80;;;;;;5011074;28;20530;-66
2022/09/06 02:02:15;;;;;;;7.03;4.85;;;26.10;48.80;;;;;;4952749;28;20035;-67
2022/09/06 02:04:55;;;;;;;11.80;5.00;;;26.00;48.90;;;;;;4952907;28;20592;-67
2022/09/06 02:07:25;;;;;;;7.53;5.45;;;26.00;48.90;;;;;;4952702;28;20521;-67
2022/09/06 02:10:09;;;;;;;9.52;4.80;;;25.90;48.60;;;;;;4952231;28;20109;-67
2022/09/06 02:12:39;;;;;;;6.68;5.20;;;26.00;49.00;;;;;;4952466;28;20050;-67
2022/09/06 02:15:13;;;;;;;8.20;4.97;;;26.00;49.00;;;;;;4952029;28;20039;-66
2022/09/06 02:17:46;;;;;;;6.13;4.82;;;26.00;49.10;;;;;;4952122;28;20043;-66
2022/09/06 02:20:17;;;;;;;8.30;4.97;;;25.90;48.60;;;;;;4936357;29;20047;-67
2022/09/06 02:22:47;;;;;;;11.73;5.32;;;25.90;48.60;;;;;;4936475;29;20130;-67
2022/09/06 02:25:25;;;;;;;7.63;4.88;;;26.00;49.10;;;;;;4952328;28;20051;-67
2022/09/06 02:27:52;;;;;;;12.10;5.13;;;25.90;48.70;;;;;;4952298;28;20086;-67
2022/09/06 02:30:18;;;;;;;8.35;5.85;;;25.90;48.70;;;;;;4951073;28;20047;-67
2022/09/06 02:33:00;;;;;;;9.23;4.57;;;25.90;48.70;;;;;;4951455;28;20043;-66
2022/09/06 02:35:26;;;;;;;10.52;5.53;;;26.00;49.10;;;;;;4944717;29;20477;-67
2022/09/06 02:37:52;;;;;;;8.75;5.68;;;25.90;48.60;;;;;;4956646;28;20118;-67
2022/09/06 02:40:19;;;;;;;7.85;5.03;;;25.90;48.60;;;;;;4991964;28;20061;-67
2022/09/06 02:42:45;;;;;;;8.27;4.97;;;26.00;48.90;;;;;;4993665;28;20129;-68
2022/09/06 02:45:11;;;;;;;8.85;5.50;;;26.00;48.90;;;;;;4993335;28;20085;-67
2022/09/06 02:47:37;;;;;;;7.10;4.97;;;26.00;48.90;;;;;;4993285;28;20064;-66
2022/09/06 02:50:04;;;;;;;10.27;5.43;;;25.90;48.50;;;;;;4974864;28;20162;-67
2022/09/06 02:52:30;;;;;;;9.05;5.28;;;26.00;49.00;;;;;;4993046;28;20053;-67
2022/09/06 02:54:56;;;;;;;8.45;5.20;;;25.90;48.60;;;;;;4993252;28;20034;-67
2022/09/06 02:57:22;;;;;;;11.05;5.45;;;25.90;48.60;;;;;;4992948;28;20046;-67
2022/09/06 02:59:48;;;;;;;8.57;5.65;;;26.00;49.00;;;;;;4993471;28;20042;-67
2022/09/06 03:02:14;;;;;;;8.25;4.93;;;26.00;49.00;;;;;;4993073;28;20038;-66
2022/09/06 03:04:40;;;;;;;10.02;5.47;;;25.80;48.60;;;;;;4991926;28;20034;-66
2022/09/06 03:07:06;;;;;;;8.20;5.32;;;25.90;48.70;;;;;;4992775;28;20481;-66
2022/09/06 03:09:32;;;;;;;6.18;5.13;;;25.80;48.70;;;;;;4992807;28;20030;-66
2022/09/06 03:11:58;;;;;;;7.75;5.07;;;25.80;48.70;;;;;;4991748;28;20038;-67
2022/09/06 03:14:24;;;;;;;6.78;4.72;;;25.90;48.70;;;;;;4974228;28;20522;-67
2022/09/06 03:16:50;;;;;;;6.50;4.63;;;25.90;48.70;;;;;;4974453;28;20078;-67
2022/09/06 03:19:16;;;;;;;7.97;5.70;;;25.90;48.70;;;;;;4992675;28;20036;-67
2022/09/06 03:21:42;;;;;;;9.73;5.28;;;25.90;48.70;;;;;;4989575;28;20133;-67
2022/09/06 03:24:08;;;;;;;11.05;5.50;;;25.90;48.70;;;;;;4992474;28;20125;-67
2022/09/06 03:26:34;;;;;;;9.18;5.38;;;25.90;48.70;;;;;;5005294;28;20053;-67
2022/09/06 03:29:00;;;;;;;9.68;5.07;;;25.90;48.70;;;;;;5012189;28;20038;-67
2022/09/06 03:31:26;;;;;;;8.85;4.90;;;25.90;48.70;;;;;;5011580;28;20060;-67
2022/09/06 03:33:52;;;;;;;8.10;5.13;;;25.90;48.60;;;;;;5012237;28;20696;-66
2022/09/06 03:36:19;;;;;;;7.35;5.38;;;25.90;48.50;;;;;;5012004;28;20041;-67
2022/09/06 03:38:44;;;;;;;9.77;5.68;;;26.00;48.90;;;;;;5009467;28;20827;-67
2022/09/06 03:41:11;;;;;;;9.43;5.35;;;26.00;48.80;;;;;;5009342;28;20034;-67
2022/09/06 03:43:37;;;;;;;10.25;5.88;;;25.90;48.30;;;;;;5009493;28;20041;-67
2022/09/06 03:46:03;;;;;;;7.47;4.47;;;25.90;48.40;;;;;;5009535;28;20045;-67
2022/09/06 03:48:29;;;;;;;9.18;4.90;;;25.90;48.60;;;;;;5009298;28;20050;-67
2022/09/06 03:50:56;;;;;;;6.10;5.05;;;25.90;48.80;;;;;;5009346;28;20033;-66
2022/09/06 03:53:24;;;;;;;7.43;5.00;;;26.00;48.70;;;;;;5009132;28;20046;-68
2022/09/06 03:55:52;;;;;;;4.95;4.25;;;26.20;48.10;;;;;;5009246;28;20030;-67
2022/09/06 03:58:20;;;;;;;8.73;4.53;;;26.20;47.90;;;;;;5009115;28;20053;-67
2022/09/06 04:00:46;;;;;;;8.95;4.82;;;26.40;47.70;;;;;;5009096;28;20407;-67
2022/09/06 04:03:13;;;;;;;5.80;4.60;;;26.40;47.50;;;;;;5009043;28;20044;-68
2022/09/06 04:05:39;;;;;;;9.18;5.35;;;26.40;47.30;;;;;;5009181;28;20542;-68
2022/09/06 04:08:05;;;;;;;6.57;4.93;;;26.40;47.10;;;;;;5009213;28;20058;-67
2022/09/06 04:10:32;;;;;;;5.53;4.07;;;26.60;47.00;;;;;;5011397;28;20169;-68
2022/09/06 04:12:58;;;;;;;7.05;4.45;;;26.60;47.90;;;;;;5010269;28;20045;-69
2022/09/06 04:15:24;;;;;;;8.85;5.32;;;26.70;49.20;;;;;;5012035;28;20026;-68
2022/09/06 04:17:50;;;;;;;9.25;5.55;;;27.00;52.20;;;;;;5011443;28;20026;-68
2022/09/06 04:20:16;;;;;;;9.75;5.25;;;27.20;51.60;;;;;;5011776;28;20056;-67
2022/09/06 04:22:43;;;;;;;7.80;5.10;;;27.30;52.20;;;;;;5011748;28;20605;-68
2022/09/06 04:25:09;;;;;;;8.15;5.10;;;27.30;46.90;;;;;;4992947;28;20061;-68
2022/09/06 04:27:35;;;;;;;7.60;5.60;;;27.20;45.90;;;;;;5011284;28;20042;-67
2022/09/06 04:30:01;;;;;;;7.75;4.75;;;27.20;45.30;;;;;;5011383;28;20409;-68
2022/09/06 04:32:27;;;;;;;11.88;6.38;;;27.20;45.20;;;;;;5013235;28;20038;-67
2022/09/06 04:34:53;;;;;;;14.32;6.28;;;27.00;44.70;;;;;;5013149;28;20184;-67
2022/09/06 04:37:19;;;;;;;11.55;4.70;;;27.10;44.30;;;;;;5015974;28;20037;-67
2022/09/06 04:39:46;;;;;;;9.82;5.13;;;27.20;43.90;;;;;;5015364;28;20045;-67
2022/09/06 04:42:12;;;;;;;10.57;5.38;;;27.10;43.60;;;;;;5015558;28;20034;-68
2022/09/06 04:44:38;;;;;;;6.43;4.72;;;27.10;43.40;;;;;;5015274;28;20390;-67
2022/09/06 04:47:11;;;;;;;6.13;4.45;;;27.20;43.10;;;;;;5014966;28;20037;-67
2022/09/06 04:49:37;;;;;;;2.03;1.88;;;27.10;42.70;;;;;;5013627;28;20029;-66
2022/09/06 04:52:04;;;;;;;6.97;2.15;;;27.00;43.10;;;;;;5014740;28;20037;-68
2022/09/06 04:54:30;;;;;;;2.55;2.35;;;27.10;43.50;;;;;;5014583;28;20033;-68
2022/09/06 04:56:56;;;;;;;0.90;0.88;;;27.20;43.60;;;;;;5014286;28;20042;-69
2022/09/06 04:59:22;;;;;;;1.90;1.73;;;27.10;42.90;;;;;;5027697;28;20057;-71
2022/09/06 05:01:48;;;;;;;4.65;2.50;;;27.20;42.20;;;;;;5013862;28;20109;-70
2022/09/06 05:04:14;;;;;;;9.52;3.88;;;27.20;42.10;;;;;;5014178;28;20466;-68
2022/09/06 05:06:41;;;;;;;4.97;2.85;;;27.10;42.90;;;;;;5013994;28;20026;-68
2022/09/06 05:09:08;;;;;;;1.63;1.52;;;27.20;45.00;;;;;;5013113;28;20049;-69
2022/09/06 05:11:34;;;;;;;5.40;3.80;;;27.10;43.70;;;;;;5013837;28;20037;-68
2022/09/06 05:14:00;;;;;;;3.45;2.08;;;27.00;43.20;;;;;;5014339;28;20022;-68
2022/09/06 05:16:26;;;;;;;2.45;2.30;;;27.00;42.50;;;;;;5014169;28;20046;-69
2022/09/06 05:18:52;;;;;;;3.55;1.30;;;27.00;42.40;;;;;;5014418;28;20030;-67
2022/09/06 05:21:18;;;;;;;2.03;1.55;;;27.00;42.70;;;;;;5013708;28;20434;-69
2022/09/06 05:23:44;;;;;;;2.17;1.45;;;27.00;44.30;;;;;;5013453;28;20391;-68
2022/09/06 05:26:10;;;;;;;1.73;1.52;;;27.20;44.40;;;;;;5010991;28;20030;-68
2022/09/06 05:28:37;;;;;;;3.95;3.28;;;26.90;44.10;;;;;;5013349;28;20034;-68
2022/09/06 05:31:11;;;;;;;5.85;3.88;;;27.00;44.30;;;;;;5013443;28;20073;-67
2022/09/06 05:33:38;;;;;;;3.47;2.25;;;27.10;45.30;;;;;;4994291;28;20088;-68
2022/09/06 05:36:05;;;;;;;6.20;4.63;;;26.90;44.50;;;;;;5013585;28;20061;-68
2022/09/06 05:38:31;;;;;;;11.90;6.57;;;27.00;43.80;;;;;;5014217;28;20110;-68
2022/09/06 05:40:57;;;;;;;6.85;5.28;;;26.90;43.30;;;;;;5013667;28;20464;-67
2022/09/06 05:43:23;;;;;;;8.88;5.53;;;26.80;46.50;;;;;;5010296;28;20403;-68
2022/09/06 05:45:50;;;;;;;13.10;6.20;;;26.80;43.30;;;;;;5012893;28;20030;-68
2022/09/06 05:48:17;;;;;;;11.23;5.53;;;26.90;43.30;;;;;;5011679;28;20069;-68
2022/09/06 05:50:43;;;;;;;9.25;4.75;;;27.00;43.70;;;;;;5009258;28;20105;-68
2022/09/06 05:53:09;;;;;;;9.35;5.60;;;26.90;43.60;;;;;;5010319;28;20911;-69
2022/09/06 05:55:35;;;;;;;10.50;6.05;;;26.80;43.90;;;;;;5010533;28;20041;-69
2022/09/06 05:58:01;;;;;;;11.50;5.78;;;26.90;43.60;;;;;;5010308;28;20138;-69
2022/09/06 06:00:27;;;;;;;9.52;5.63;;;27.00;44.00;;;;;;5010438;28;20108;-69
2022/09/06 06:02:53;;;;;;;10.75;5.38;;;26.90;43.30;;;;;;5009837;28;20525;-69
2022/09/06 06:05:19;;;;;;;9.43;5.22;;;27.00;43.70;;;;;;5010134;28;20041;-70
2022/09/06 06:07:45;;;;;;;9.13;5.60;;;27.00;43.70;;;;;;5007620;28;20080;-71
2022/09/06 06:10:11;;;;;;;13.63;5.82;;;27.00;43.60;;;;;;5010327;28;20033;-71
2022/09/06 06:12:37;;;;;;;10.68;6.18;;;27.00;43.60;;;;;;5010015;28;20069;-68
2022/09/06 06:15:06;;;;;;;8.98;5.03;;;27.00;43.60;;;;;;5007256;28;20073;-69
2022/09/06 06:17:33;;;;;;;6.20;4.72;;;27.10;43.60;;;;;;5010078;28;20026;-69
2022/09/06 06:19:59;;;;;;;8.50;4.65;;;27.00;43.70;;;;;;5009988;28;20026;-67
2022/09/06 06:22:25;;;;;;;7.60;4.95;;;27.00;43.70;;;;;;5009668;28;20515;-68
2022/09/06 06:24:51;;;;;;;8.30;6.18;;;27.00;43.90;;;;;;5009114;28;20372;-70
2022/09/06 06:27:17;;;;;;;9.65;6.28;;;27.10;44.20;;;;;;5010262;28;20038;-67
2022/09/06 06:29:43;;;;;;;9.32;6.40;;;27.00;44.30;;;;;;5009578;28;20042;-68
2022/09/06 06:32:09;;;;;;;10.73;5.78;;;26.90;43.10;;;;;;5009723;28;20037;-68
2022/09/06 06:34:35;;;;;;;12.15;5.82;;;26.80;43.30;;;;;;5010419;28;20040;-68
2022/09/06 06:37:01;;;;;;;7.03;5.78;;;26.90;43.50;;;;;;5009932;28;20057;-69
2022/09/06 06:39:27;;;;;;;8.13;5.53;;;26.80;43.50;;;;;;5015004;28;20372;-68
2022/09/06 06:41:54;;;;;;;8.90;5.28;;;26.90;43.50;;;;;;5020598;28;20434;-69
2022/09/06 06:44:30;;;;;;;8.70;5.95;;;26.90;43.50;;;;;;5016394;28;20060;-68
2022/09/06 06:46:57;;;;;;;7.45;4.85;;;26.90;43.60;;;;;;5020504;28;20498;-69
2022/09/06 06:49:24;;;;;;;10.95;5.63;;;26.90;43.60;;;;;;5014467;28;20033;-70
2022/09/06 06:51:50;;;;;;;12.95;6.15;;;27.00;44.30;;;;;;5020997;28;20033;-68
2022/09/06 06:54:16;;;;;;;10.50;5.43;;;26.90;43.80;;;;;;5015272;28;20112;-70
2022/09/06 06:56:44;;;;;;;13.50;6.13;;;27.00;44.60;;;;;;5012768;28;20030;-67
2022/09/06 06:59:10;;;;;;;15.98;6.53;;;27.00;44.70;;;;;;5010733;28;20444;-67
2022/09/06 07:01:36;;;;;;;7.40;5.80;;;27.00;44.50;;;;;;5012296;28;20040;-68
2022/09/06 07:04:03;;;;;;;12.20;6.25;;;27.00;44.50;;;;;;5012796;28;20387;-67
2022/09/06 07:06:30;;;;;;;12.13;6.15;;;26.90;44.10;;;;;;5012695;28;20033;-68
2022/09/06 07:08:57;;;;;;;13.43;6.38;;;26.90;44.20;;;;;;5010444;28;20041;-67
2022/09/06 07:11:24;;;;;;;8.98;6.00;;;26.90;44.40;;;;;;5012629;28;20038;-68
2022/09/06 07:13:51;;;;;;;9.13;6.03;;;26.90;45.00;;;;;;5012838;28;20069;-68
2022/09/06 07:16:22;;;;;;;11.60;4.78;;;26.90;45.10;;;;;;5012977;28;20364;-67
2022/09/06 07:18:53;;;;;;;11.82;5.70;;;26.90;45.90;;;;;;5012651;28;20439;-67
2022/09/06 07:21:27;;;;;;;11.40;5.53;;;26.80;46.40;;;;;;5011595;28;20059;-67
2022/09/06 07:23:55;;;;;;;8.73;5.82;;;26.80;46.40;;;;;;5011838;28;20034;-67
2022/09/06 07:26:26;;;;;;;12.05;5.97;;;26.90;45.50;;;;;;5012742;28;20038;-67
2022/09/06 07:28:53;;;;;;;9.18;6.18;;;26.80;45.20;;;;;;5011417;28;20530;-67
2022/09/06 07:31:20;;;;;;;8.13;5.65;;;26.80;44.70;;;;;;5012247;28;20030;-68
2022/09/06 07:33:46;;;;;;;10.38;5.25;;;26.80;44.40;;;;;;5011652;28;20118;-68
2022/09/06 07:36:12;;;;;;;12.75;5.45;;;26.90;44.10;;;;;;5011486;28;20112;-68
2022/09/06 07:38:39;;;;;;;12.70;6.57;;;27.00;44.30;;;;;;5012147;28;20113;-67
2022/09/06 07:41:07;;;;;;;4.22;2.58;;;27.00;47.70;;;;;;4993401;28;20108;-68
2022/09/06 07:43:34;;;;;;;2.80;2.25;;;27.40;46.40;;;;;;5009673;28;20057;-68
2022/09/06 07:46:09;;;;;;;13.95;2.05;;;27.60;43.50;;;;;;5009563;28;20073;-67
2022/09/06 07:48:55;;;;;;;4.65;2.95;;;27.60;43.20;;;;;;5009420;28;20034;-68
2022/09/06 07:51:41;;;;;;;3.13;2.83;;;27.50;42.90;;;;;;4970413;28;20081;-68
2022/09/06 07:54:07;;;;;;;2.20;1.15;;;27.50;42.90;;;;;;4950351;28;20074;-67
2022/09/06 07:56:33;;;;;;;2.85;2.25;;;27.30;43.00;;;;;;4950811;29;20220;-69
2022/09/06 07:58:59;;;;;;;16.45;2.05;;;27.50;43.90;;;;;;4918491;29;20082;-68
2022/09/06 08:01:33;;;;;;;10.48;2.83;;;27.40;44.60;;;;;;4950755;29;20047;-69
2022/09/06 08:04:01;;;;;;;2.10;1.98;;;27.40;43.70;;;;;;4934141;29;20043;-66
2022/09/06 08:06:30;;;;;;;6.72;3.13;;;27.30;45.00;;;;;;4949926;28;20043;-67
2022/09/06 08:08:57;;;;;;;0.50;0.50;;;27.50;45.90;;;;;;4950003;29;20047;-66
2022/09/06 08:11:25;;;;;;;24.38;1.50;;;27.40;45.80;;;;;;4921512;28;20043;-68
2022/09/06 08:13:54;;;;;;;16.23;4.32;;;27.50;51.90;;;;;;4969495;28;20488;-67
2022/09/06 08:16:22;;;;;;;8.02;3.58;;;27.70;60.00;;;;;;4969940;28;20045;-67
2022/09/06 08:18:59;;;;;;;11.00;4.65;;;27.90;59.60;;;;;;4968158;28;20039;-67
2022/09/06 08:21:27;;;;;;;11.55;2.33;;;27.90;60.90;;;;;;4972292;28;20038;-67
2022/09/06 08:24:13;;;;;;;3.83;2.17;;;28.00;62.10;;;;;;4989364;28;20538;-68
2022/09/06 08:26:41;;;;;;;13.85;3.65;;;28.00;60.50;;;;;;4970091;28;20047;-68
2022/09/06 08:29:09;;;;;;;4.13;2.45;;;28.20;65.20;;;;;;4953675;28;20145;-67
2022/09/06 08:31:37;;;;;;;5.30;1.98;;;28.30;49.40;;;;;;4973739;28;20078;-69
2022/09/06 08:34:04;;;;;;;9.13;3.92;;;28.30;50.20;;;;;;4992674;28;20092;-68
2022/09/06 08:36:30;;;;;;;35.90;5.05;;;28.30;46.90;;;;;;5008845;28;20446;-69
2022/09/06 08:38:58;;;;;;;12.40;3.70;;;28.30;55.00;;;;;;5009047;28;20037;-68
2022/09/06 08:41:26;;;;;;;5.85;3.40;;;28.30;47.50;;;;;;5008895;28;20042;-67
2022/09/06 08:44:09;;;;;;;4.75;2.85;;;28.50;47.90;;;;;;5009093;28;20050;-68
2022/09/06 08:46:59;;;;;;;8.25;2.83;;;28.40;43.50;;;;;;5008980;28;20057;-68
2022/09/06 08:49:28;;;;;;;5.32;2.03;;;28.30;42.90;;;;;;5007782;28;20053;-68
2022/09/06 08:52:16;;;;;;;3.65;2.42;;;28.30;40.40;;;;;;5006518;28;20105;-68
2022/09/06 08:54:54;;;;;;;3.72;2.95;;;28.40;39.40;;;;;;5008482;28;20505;-68
2022/09/06 08:57:53;;;;;;;4.25;2.75;;;28.20;38.00;;;;;;5009077;28;20037;-67
2022/09/06 09:00:20;;;;;;;4.00;2.30;;;28.20;38.50;;;;;;5011655;28;20044;-67
2022/09/06 09:02:50;;;;;;;6.97;2.25;;;28.20;39.20;;;;;;5008953;28;20049;-67
2022/09/06 09:05:48;;;;;;;3.05;1.85;;;28.10;38.80;;;;;;5011099;28;20037;-67
2022/09/06 09:08:49;;;;;;;3.10;1.88;;;28.10;38.80;;;;;;4953137;28;20403;-69
2022/09/06 09:11:20;;;;;;;1.42;1.23;;;28.00;38.30;;;;;;4933565;29;20066;-68
2022/09/06 09:13:52;;;;;;;1.67;1.58;;;27.90;38.00;;;;;;4963472;28;20040;-68
2022/09/06 09:16:18;;;;;;;2.45;1.30;;;28.10;38.90;;;;;;4945759;29;20038;-68
2022/09/06 09:18:50;;;;;;;3.40;0.98;;;28.10;38.10;;;;;;4946903;28;20433;-67
2022/09/06 09:21:21;;;;;;;1.83;1.33;;;28.20;38.30;;;;;;4953397;28;20070;-68
2022/09/06 09:23:55;;;;;;;1.50;1.35;;;28.20;41.00;;;;;;4953063;29;20051;-68
2022/09/06 09:26:27;;;;;;;1.40;1.25;;;28.50;44.30;;;;;;4937423;29;20050;-67
2022/09/06 09:29:13;;;;;;;1.13;0.90;;;28.50;45.30;;;;;;4953506;28;20047;-69
2022/09/06 09:31:46;;;;;;;0.70;0.65;;;28.50;43.30;;;;;;4953519;28;20051;-68
2022/09/06 09:34:26;;;;;;;1.05;1.05;;;28.50;40.60;;;;;;4953486;28;20054;-68
2022/09/06 09:37:18;;;;;;;1.83;1.70;;;28.40;39.30;;;;;;4953484;28;20366;-67
2022/09/06 09:39:47;;;;;;;1.30;1.20;;;28.40;38.60;;;;;;4953447;28;20064;-67
2022/09/06 09:42:28;;;;;;;16.45;4.07;;;28.30;39.60;;;;;;4937734;29;20424;-68
2022/09/06 09:44:55;;;;;;;4.38;1.73;;;28.70;41.30;;;;;;4961722;28;20046;-68
2022/09/06 09:47:30;;;;;;;2.60;2.40;;;29.20;43.60;;;;;;4981651;28;20034;-68
2022/09/06 09:49:57;;;;;;;10.00;2.00;;;29.10;42.40;;;;;;4994569;28;20137;-67
2022/09/06 09:52:29;;;;;;;2.65;1.70;;;29.00;40.80;;;;;;4994806;28;20026;-67
2022/09/06 09:55:14;;;;;;;1.08;0.95;;;28.90;37.40;;;;;;5011184;28;20065;-67
2022/09/06 09:57:58;;;;;;;2.90;1.83;;;28.70;38.00;;;;;;5011125;28;20128;-68
2022/09/06 10:00:38;;;;;;;2.05;0.80;;;28.70;38.60;;;;;;5012668;28;20057;-67
2022/09/06 10:03:24;;;;;;;3.67;1.60;;;28.70;39.70;;;;;;5011397;28;20147;-67
2022/09/06 10:06:14;;;;;;;2.05;1.38;;;28.80;39.50;;;;;;5030973;28;20049;-67
2022/09/06 10:09:19;;;;;;;1.45;1.35;;;28.60;37.90;;;;;;5010585;28;20108;-67
2022/09/06 10:12:08;;;;;;;2.58;1.40;;;28.60;36.20;;;;;;5010381;28;20048;-67
2022/09/06 10:14:46;;;;;;;2.83;1.50;;;28.50;36.20;;;;;;4971838;28;20042;-67
2022/09/06 10:17:30;;;;;;;2.38;1.55;;;28.50;36.20;;;;;;4969675;28;20047;-68
2022/09/06 10:20:19;;;;;;;1.65;1.42;;;28.40;35.90;;;;;;4952428;29;20057;-67
2022/09/06 10:23:15;;;;;;;1.75;1.63;;;28.30;36.40;;;;;;4900276;29;20489;-68
2022/09/06 10:26:21;;;;;;;1.48;1.33;;;28.30;37.50;;;;;;4885771;29;20037;-67
2022/09/06 10:29:10;;;;;;;3.35;1.70;;;28.40;37.90;;;;;;4856786;29;20057;-67
2022/09/06 10:31:40;;;;;;;3.38;1.90;;;28.20;38.70;;;;;;4837747;29;20124;-66
2022/09/06 10:34:44;;;;;;;2.00;1.50;;;28.10;35.40;;;;;;4854470;29;20456;-67
2022/09/06 10:37:35;;;;;;;2.47;1.52;;;28.10;35.50;;;;;;4817964;29;20054;-67
2022/09/06 10:40:06;;;;;;;1.95;1.70;;;28.00;37.70;;;;;;4832320;29;20088;-67
2022/09/06 10:42:46;;;;;;;2.13;1.35;;;28.00;38.60;;;;;;4794121;29;20045;-67
2022/09/06 10:45:47;;;;;;;1.92;1.65;;;28.00;38.40;;;;;;4820745;29;20053;-68
2022/09/06 10:48:18;;;;;;;2.10;1.88;;;28.00;38.40;;;;;;4852619;29;20187;-67
2022/09/06 10:50:53;;;;;;;4.03;1.83;;;27.80;35.70;;;;;;4846570;29;20138;-68
2022/09/06 10:53:37;;;;;;;2.38;1.60;;;27.90;36.80;;;;;;4857813;29;20049;-69
2022/09/06 10:56:36;;;;;;;1.92;1.50;;;27.80;37.90;;;;;;4853614;29;20140;-68
2022/09/06 10:59:34;;;;;;;4.35;1.83;;;27.70;38.10;;;;;;4821086;29;20054;-68
2022/09/06 11:02:31;;;;;;;5.97;2.10;;;27.80;38.70;;;;;;4851978;29;20054;-68
2022/09/06 11:05:41;;;;;;;2.10;1.40;;;27.70;35.40;;;;;;4894731;29;20465;-68
2022/09/06 11:08:13;;;;;;;2.72;1.30;;;27.80;38.60;;;;;;4857524;29;20396;-68
2022/09/06 11:10:44;;;;;;;3.83;1.30;;;27.70;37.10;;;;;;4857722;29;20052;-69
2022/09/06 11:13:18;;;;;;;2.85;1.30;;;27.70;37.00;;;;;;4878227;29;20056;-68
2022/09/06 11:16:20;;;;;;;2.00;1.52;;;27.50;37.20;;;;;;4894525;29;20032;-71
2022/09/06 11:18:55;;;;;;;3.72;1.80;;;27.60;36.70;;;;;;4899922;29;20521;-69
2022/09/06 11:21:30;;;;;;;2.20;2.00;;;27.50;36.80;;;;;;4937567;29;20286;-69
2022/09/06 11:24:13;;;;;;;2.30;1.60;;;27.50;38.00;;;;;;4913191;29;20114;-68
2022/09/06 11:26:42;;;;;;;;;;;27.60;41.00;;;;;;4913311;29;20051;-70
2022/09/06 11:29:24;;;;;;;5.18;1.38;;;27.60;41.60;;;;;;4921552;29;19954;-68
2022/09/06 11:32:32;;;;;;;4.32;1.13;;;27.60;41.00;;;;;;4914475;29;20064;-68
2022/09/06 11:35:28;;;;;;;3.22;1.70;;;27.60;39.30;;;;;;4950774;29;20043;-68
2022/09/06 11:38:22;;;;;;;2.85;1.48;;;27.60;39.30;;;;;;4920386;28;20079;-68
2022/09/06 11:41:00;;;;;;;3.42;1.73;;;27.60;39.20;;;;;;4989339;28;20471;-73
2022/09/06 11:43:45;;;;;;;2.15;1.27;;;27.50;39.10;;;;;;4989028;28;20042;-69
2022/09/06 11:46:39;;;;;;;1.70;1.30;;;27.50;38.50;;;;;;4992822;28;20427;-70
2022/09/06 11:49:15;;;;;;;2.45;1.63;;;27.60;38.50;;;;;;4981082;28;20049;-68
2022/09/06 11:51:43;;;;;;;4.90;1.40;;;27.60;38.20;;;;;;4989936;28;20030;-68
2022/09/06 11:54:23;;;;;;;4.88;1.33;;;27.60;38.00;;;;;;4989616;28;20045;-68
2022/09/06 11:56:54;;;;;;;4.53;1.90;;;27.50;37.80;;;;;;4990384;28;20134;-70
2022/09/06 11:59:51;;;;;;;1.30;1.20;;;27.70;38.00;;;;;;4973599;28;20109;-69
2022/09/06 12:02:34;;;;;;;4.10;1.40;;;27.50;37.10;;;;;;4989909;28;20042;-68
2022/09/06 12:05:00;;;;;;;1.90;1.50;;;27.50;37.70;;;;;;4980941;28;20051;-68
2022/09/06 12:07:27;;;;;;;1.60;1.50;;;27.60;37.60;;;;;;4934666;29;20058;-67
2022/09/06 12:09:53;;;;;;;2.45;1.73;;;27.50;37.20;;;;;;4950103;29;20054;-69
2022/09/06 12:12:47;;;;;;;1.90;1.80;;;27.60;36.80;;;;;;4978897;28;20494;-68
2022/09/06 12:15:28;;;;;;;4.47;1.65;;;27.70;36.70;;;;;;4973845;28;20054;-69
2022/09/06 12:18:33;;;;;;;1.50;1.30;;;27.50;36.60;;;;;;5009138;28;20116;-69
2022/09/06 12:21:02;;;;;;;4.85;1.30;;;27.60;36.60;;;;;;4989302;28;20121;-69
2022/09/06 12:23:34;;;;;;;1.77;1.50;;;27.60;36.60;;;;;;4989278;28;20038;-68
2022/09/06 12:26:10;;;;;;;1.15;1.05;;;27.70;34.40;;;;;;4989416;28;20034;-67
2022/09/06 12:28:50;;;;;;;2.10;1.83;;;27.70;36.60;;;;;;4989097;28;20487;-68
2022/09/06 12:31:33;;;;;;;1.27;1.17;;;27.50;37.20;;;;;;4973330;28;20054;-68
2022/09/06 12:34:07;;;;;;;2.05;1.45;;;27.60;37.30;;;;;;4989131;28;20093;-69
2022/09/06 12:36:34;;;;;;;2.67;1.70;;;27.60;37.60;;;;;;4989004;28;20104;-68
2022/09/06 12:39:13;;;;;;;2.33;1.55;;;27.80;36.80;;;;;;4989427;28;20342;-68
2022/09/06 12:41:43;;;;;;;3.05;1.55;;;27.70;37.30;;;;;;5008052;28;20137;-68
2022/09/06 12:44:11;;;;;;;4.00;1.63;;;27.70;37.30;;;;;;4950175;28;20054;-68
2022/09/06 12:46:47;;;;;;;1.45;1.35;;;27.70;38.20;;;;;;4964946;28;20042;-69
2022/09/06 12:49:17;;;;;;;1.98;1.20;;;27.70;37.30;;;;;;4988702;28;20051;-68
2022/09/06 12:51:43;;;;;;;2.13;1.90;;;27.70;38.30;;;;;;4998595;28;20042;-68
2022/09/06 12:54:29;;;;;;;2.28;1.65;;;27.70;38.00;;;;;;4994402;28;20483;-68
2022/09/06 12:57:12;;;;;;;1.20;1.17;;;27.70;38.50;;;;;;4991769;28;20133;-68
2022/09/06 12:59:47;;;;;;;5.38;1.65;;;27.70;36.50;;;;;;4961971;28;20055;-69
2022/09/06 13:02:17;;;;;;;3.22;1.35;;;27.80;38.50;;;;;;4957146;28;20600;-68
2022/09/06 13:05:07;;;;;;;1.30;1.20;;;27.80;38.80;;;;;;4957284;28;20121;-68
2022/09/06 13:07:40;;;;;;;1.70;1.60;;;27.80;39.10;;;;;;4953823;29;20094;-69
2022/09/06 13:10:08;;;;;;;2.40;1.55;;;27.80;39.10;;;;;;4937795;29;20656;-69
2022/09/06 13:12:38;;;;;;;1.45;1.25;;;27.80;39.20;;;;;;4951193;29;20401;-69
2022/09/06 13:15:13;;;;;;;3.08;1.90;;;27.90;38.50;;;;;;4953804;28;20055;-68